Trenton, UT (84338)

3:54 AM MST on February 12, 2016 (GMT -0700)
Newton South 1 - Dyacon.com | | Change Station
CLOSE
Current Station
Personal Weather Station
Location: Newton, UT
Elevation: 4488 ft
Nearby Weather Stations

Elev 4488 ft 41.86 °N, 111.99 °W | Updated 3 minutes ago

Fog
Fog
19.4 °F
Feels Like 19 °F
N
1.3
Wind Variable Wind from WNW

Today
High -- | Low -- °F
--% Chance of Precip.
Yesterday
High -- | Low -- °F
Precip. -- in
Pressure 30.53 in
Visibility 0.2 miles
Clouds
Windchill 19 °F
Dew Point 18 °F
Humidity 95%
Rainfall 0.00 in
Snow Depth Not available.
7:28 AM 5:56 PM
Waxing Crescent, 19% visible
METAR KLGU 121051Z AUTO 00000KT 1/4SM FZFG VV002 M07/M07 A3041 RMK AO2 SLP337 I1000 T10671067
Pressure 30.53 in
Visibility 0.2 miles
Clouds
Windchill 19 °F
Dew Point 18 °F
Humidity 95%
Rainfall 0.00 in
Snow Depth Not available.
7:28 AM 5:56 PM
Waxing Crescent, 19% visible
METAR KLGU 121051Z AUTO 00000KT 1/4SM FZFG VV002 M07/M07 A3041 RMK AO2 SLP337 I1000 T10671067

10-Day Weather Forecast

Almanac

Astronomy

Feb. 12, 2016 Rise Set
Actual Time
Civil Twilight
Nautical Twilight
Astronomical Twilight
Moon
Length of Visible Light
Length of Day
Tomorrow will be .
, % of the Moon is Illuminated

Today's Extremes

State Highs State Lows

Community

WunderPhotos

Upload Photos

1,892,289 photos uploaded!

WunderBlog® & News

Nearby

Air Quality

  Air Quality AQ Index Pollutant
Not available.

Snow Depth

Station Depth Elevation

Earthquake Activity

City Distance Mag. Time & Date
Minimum magnitude displayed is 2.5.

Coastal Water Temperatures

Place Temperature

Stations

Nearby Weather Stations

Station Location Temp. Windchill Dew Point Humidity Wind Precip. Elev Updated Type
                   

Watches & Warnings

There are currently no watches in effect.